Terminal Aerodrome Forecast
Issued by NWS Omaha/Valley, NE

Home | Current Version | Previous Version | Text Only | Print | Product List | Glossary On
Versions: 1 2 3 4 5 6 7 8 9 10 11 12 13 14 15 16 17 18 19 20 21 22 23 24 25 26 27 28 29 30 31 32 33 34 35 36 37 38
000
FTUS43 KOAX 240414 AAA
TAFOMA
TAF AMD
KOMA 240414Z 2404/2424 36015G23KT 3SM -RASN OVC010
      TEMPO 2404/2405 2SM -TSRA BKN008CB
     FM240500 03014G23KT 2SM RASN OVC008
     FM240700 01014G23KT P6SM OVC012
     FM240900 36015G24KT 2SM -SN OVC012
      TEMPO 2411/2414 3/4SM -SN OVC008
     FM242300 33016G24KT 3SM -SN OVC015=

USA.gov is the U.S. government's official web portal to all federal, state and local government web resources and services.